首页
METAR-TAF:

METAR-TAF

机场 :

Caro, 密歇根州, 美国

纬度: 43-27-31N, 经度: 083-26-43W, 海拔: 214米

当前天气观测

该预报发布于11分钟前的23:15 UTC
风速8节,风向北转东北
温度 5°C
湿度 75%
气压 1013 hPa
能見度: 16.1公里
多云层高于2300英尺
阴天层高于3100英尺

METAR: KCFS 292315Z AUTO 02008KT 10SM BKN023 OVC031 05/01 A2992 RMK AO2 T00470010

时间: 19:26 (23:26 UTC)


TAF: 丢失

超过4000个机场的气象观测和天气预报(METAR&TAF报告)。

可查询的气象台以黄色和红色小点在地图上表示。

将鼠标移到小点上方,可查看气象台名称。

然后点击查看天气观测和预报。

如需切换地图:点击带黑十字的绿色按钮放大地图;点击带横线的绿色按钮缩小地图;或者点击绿色箭头查看邻近地区的地图。


METAR-TAF: